Hengist.it
  Home
 Volo reale
   Pilot Logbook
   Private Pilot Licence
   I miei aerei
   Scuola volo FlySabaudia
   Aeroporto dell'Urbe
   Galleria fotografica
   Galleria video
 Volo virtuale
   Ivao
   Flight Simulator
   Air Traffic Control
   VFR Tour 2007
   VFR World Tour 2008
 
 Servizi
   Meteo & Notam
   Airports & Navaids
   Effemeridi
   Forum A.O.P.A.
   Pagina degli ospiti
   Contatti
   Links
 
 Altri Hobbies
   A.S. Roma
   Home Cinema
   X-Box 360 / PC
 
 
   VFR Tour 2007

Il piano di volo




>>>> Il tragitto sulla mappa <<<<


I serbatoi sono pieni, le condizioni atmosferiche sono buone:

LIRA 301745Z 25005KT 210V280 9999 SCT017 SCT200 20/06 Q1014

Cinque nodi di vento variabile, visibilitą oltre i 10 km, qualche nuvola sparsa che comunque non mi spaventa: si parte!



2000 piedi prossimo ad Aprilia




sulla verticale del lago di Caprolace, poco distante dal Flying Sabaudia!




il passaggio sul Monte Circeo č sempre emozionante....




...passato Lago Patria, una perturbazione rende le condizioni VFR "al limite" del consentito... tuttavia la visibilitą č buona, il vento č debole, per cui atterro su Capodichino senza problemi!



<<< Indietro


 
 

© 2000-2007 Hengist.it - Tutti i diritti riservati